Time,TemperatureF,DewpointF,PressureIn,WindDirection,WindDirectionDegrees,WindSpeedMPH,WindSpeedGustMPH,Humidity,HourlyPrecipIn,Conditions,Clouds,dailyrainin,SoftwareType,DateUTC
2013-08-19 00:01:00,63.7,6.1,30.11,East,90,0.7,0.7,1,0.00,,,0.00,WUHU216HW,2013-08-19 05:01:00,
2013-08-19 00:06:00,63.7,6.1,30.11,East,90,0.4,0.7,1,0.00,,,0.00,WUHU216HW,2013-08-19 05:06:00,
2013-08-19 00:11:00,63.7,6.1,30.11,ESE,113,1.3,1.3,1,0.00,,,0.00,WUHU216HW,2013-08-19 05:11:00,
2013-08-19 00:16:00,63.5,6.0,30.11,ESE,113,0.9,1.3,1,0.00,,,0.00,WUHU216HW,2013-08-19 05:16:00,
2013-08-19 00:21:00,63.4,6.0,30.11,ESE,113,0.9,1.3,1,0.00,,,0.00,WUHU216HW,2013-08-19 05:21:00,
2013-08-19 00:26:00,63.5,6.0,30.11,ESE,113,0.7,0.9,1,0.00,,,0.00,WUHU216HW,2013-08-19 05:26:00,
2013-08-19 00:31:00,63.5,6.0,30.11,ESE,113,1.1,1.1,1,0.00,,,0.00,WUHU216HW,2013-08-19 05:31:00,
2013-08-19 00:36:00,63.4,6.0,30.11,ESE,113,1.1,1.1,1,0.00,,,0.00,WUHU216HW,2013-08-19 05:36:00,
2013-08-19 00:41:00,63.4,6.0,30.11,ESE,113,1.1,1.1,1,0.00,,,0.00,WUHU216HW,2013-08-19 05:41:00,
2013-08-19 00:46:00,63.5,6.0,30.11,ESE,113,1.1,1.1,1,0.00,,,0.00,WUHU216HW,2013-08-19 05:46:00,
2013-08-19 00:51:00,63.5,6.0,30.11,ESE,113,1.1,1.1,1,0.00,,,0.00,WUHU216HW,2013-08-19 05:51:00,
2013-08-19 00:56:00,63.5,6.0,30.11,ESE,113,0.7,1.1,1,0.00,,,0.00,WUHU216HW,2013-08-19 05:56:00,
2013-08-19 01:01:00,63.4,6.0,30.11,ESE,113,0.4,1.1,1,0.00,,,0.00,WUHU216HW,2013-08-19 06:01:00,
2013-08-19 01:06:00,63.2,5.8,30.11,ESE,113,0.9,0.9,1,0.00,,,0.00,WUHU216HW,2013-08-19 06:06:00,
2013-08-19 01:11:00,63.0,5.7,30.11,ESE,113,0.9,0.9,1,0.00,,,0.00,WUHU216HW,2013-08-19 06:11:00,
2013-08-19 01:16:00,62.8,5.5,30.11,ESE,113,0.4,1.1,1,0.00,,,0.00,WUHU216HW,2013-08-19 06:16:00,
2013-08-19 01:21:00,62.8,5.5,30.11,ESE,113,0.7,1.1,1,0.00,,,0.00,WUHU216HW,2013-08-19 06:21:00,
2013-08-19 01:26:00,62.6,5.4,30.11,ESE,113,0.7,0.7,1,0.00,,,0.00,WUHU216HW,2013-08-19 06:26:00,
2013-08-19 01:31:00,62.6,5.4,30.11,ESE,113,0.7,0.9,1,0.00,,,0.00,WUHU216HW,2013-08-19 06:31:00,
2013-08-19 01:36:00,62.5,5.2,30.11,ESE,113,0.9,0.9,1,0.00,,,0.00,WUHU216HW,2013-08-19 06:36:00,
2013-08-19 01:41:00,62.3,5.1,30.11,ESE,113,0.0,0.9,1,0.00,,,0.00,WUHU216HW,2013-08-19 06:41:00,
2013-08-19 01:46:00,62.1,5.0,30.11,ESE,113,0.7,0.9,1,0.00,,,0.00,WUHU216HW,2013-08-19 06:46:00,
2013-08-19 01:51:00,61.9,4.9,30.11,ESE,113,1.8,1.8,1,0.00,,,0.00,WUHU216HW,2013-08-19 06:51:00,
2013-08-19 01:56:00,62.1,5.0,30.11,ESE,113,0.9,1.8,1,0.00,,,0.00,WUHU216HW,2013-08-19 06:56:00,
2013-08-19 02:01:00,62.1,5.0,30.10,ESE,113,0.7,1.8,1,0.00,,,0.00,WUHU216HW,2013-08-19 07:01:00,
2013-08-19 02:06:00,61.9,4.9,30.10,ESE,113,0.4,0.9,1,0.00,,,0.00,WUHU216HW,2013-08-19 07:06:00,
2013-08-19 02:11:00,61.7,4.7,30.10,SE,135,2.2,2.2,1,0.00,,,0.00,WUHU216HW,2013-08-19 07:11:00,
2013-08-19 02:16:00,61.6,4.5,30.10,ESE,113,0.9,2.2,1,0.00,,,0.00,WUHU216HW,2013-08-19 07:16:00,
2013-08-19 02:21:00,61.6,4.5,30.10,ESE,113,1.6,2.2,1,0.00,,,0.00,WUHU216HW,2013-08-19 07:21:00,
2013-08-19 02:26:00,61.6,4.5,30.10,ESE,113,1.1,1.6,1,0.00,,,0.00,WUHU216HW,2013-08-19 07:26:00,
2013-08-19 02:31:00,61.4,4.4,30.10,ESE,113,1.1,1.6,1,0.00,,,0.00,WUHU216HW,2013-08-19 07:31:00,
2013-08-19 02:36:00,61.4,4.4,30.10,ESE,113,1.8,1.8,1,0.00,,,0.00,WUHU216HW,2013-08-19 07:36:00,
2013-08-19 02:41:00,61.2,4.2,30.10,ESE,113,0.7,1.8,1,0.00,,,0.00,WUHU216HW,2013-08-19 07:41:00,
2013-08-19 02:46:00,61.2,4.2,30.10,ESE,113,1.3,1.8,1,0.00,,,0.00,WUHU216HW,2013-08-19 07:46:00,
2013-08-19 02:51:00,61.2,4.2,30.10,ESE,113,0.4,1.3,1,0.00,,,0.00,WUHU216HW,2013-08-19 07:51:00,
2013-08-19 02:56:00,61.2,4.2,30.10,ESE,113,0.0,1.3,1,0.00,,,0.00,WUHU216HW,2013-08-19 07:56:00,
2013-08-19 03:01:00,61.0,4.2,30.10,ESE,113,0.0,0.4,1,0.00,,,0.00,WUHU216HW,2013-08-19 08:01:00,
2013-08-19 03:06:00,61.2,4.2,30.10,ESE,113,0.4,0.4,1,0.00,,,0.00,WUHU216HW,2013-08-19 08:06:00,
2013-08-19 03:11:00,61.2,4.2,30.10,ESE,113,0.0,0.4,1,0.00,,,0.00,WUHU216HW,2013-08-19 08:11:00,
2013-08-19 03:16:00,61.2,4.2,30.10,ESE,113,0.4,0.4,1,0.00,,,0.00,WUHU216HW,2013-08-19 08:16:00,
2013-08-19 03:21:00,61.4,4.4,30.10,ESE,113,0.4,0.4,1,0.00,,,0.00,WUHU216HW,2013-08-19 08:21:00,
2013-08-19 03:26:00,61.4,4.4,30.10,ESE,113,0.4,0.4,1,0.00,,,0.00,WUHU216HW,2013-08-19 08:26:00,
2013-08-19 03:31:00,61.6,4.5,30.10,ESE,113,0.7,0.7,1,0.00,,,0.00,WUHU216HW,2013-08-19 08:31:00,
2013-08-19 03:36:00,61.4,4.4,30.09,ESE,113,1.1,1.1,1,0.00,,,0.00,WUHU216HW,2013-08-19 08:36:00,
2013-08-19 03:41:00,61.2,4.2,30.09,ESE,113,0.9,1.1,1,0.00,,,0.00,WUHU216HW,2013-08-19 08:41:00,
2013-08-19 03:46:00,60.8,4.0,30.09,ESE,113,1.1,1.1,1,0.00,,,0.00,WUHU216HW,2013-08-19 08:46:00,
2013-08-19 03:51:00,60.8,4.0,30.09,ESE,113,1.8,1.8,1,0.00,,,0.00,WUHU216HW,2013-08-19 08:51:00,
2013-08-19 03:56:00,60.8,4.0,30.09,ESE,113,1.1,1.8,1,0.00,,,0.00,WUHU216HW,2013-08-19 08:56:00,
2013-08-19 04:01:00,60.7,3.8,30.09,ESE,113,1.1,1.8,1,0.00,,,0.00,WUHU216HW,2013-08-19 09:01:00,
2013-08-19 04:06:00,60.5,3.7,30.09,ESE,113,0.7,1.1,1,0.00,,,0.00,WUHU216HW,2013-08-19 09:06:00,
2013-08-19 04:11:00,60.3,3.5,30.09,ESE,113,0.9,1.1,1,0.00,,,0.00,WUHU216HW,2013-08-19 09:11:00,
2013-08-19 04:16:00,60.3,3.5,30.09,ESE,113,0.7,0.9,1,0.00,,,0.00,WUHU216HW,2013-08-19 09:16:00,
2013-08-19 04:21:00,60.1,3.4,30.09,ESE,113,0.9,0.9,1,0.00,,,0.00,WUHU216HW,2013-08-19 09:21:00,
2013-08-19 04:26:00,60.1,3.4,30.09,ESE,113,1.1,1.1,1,0.00,,,0.00,WUHU216HW,2013-08-19 09:26:00,
2013-08-19 04:31:00,59.9,3.2,30.08,ESE,113,0.9,1.1,1,0.00,,,0.00,WUHU216HW,2013-08-19 09:31:00,
2013-08-19 04:36:00,59.9,3.2,30.08,ESE,113,1.3,1.3,1,0.00,,,0.00,WUHU216HW,2013-08-19 09:36:00,
2013-08-19 04:41:00,59.8,3.1,30.08,ESE,113,1.1,1.3,1,0.00,,,0.00,WUHU216HW,2013-08-19 09:41:00,
2013-08-19 04:46:00,59.8,3.1,30.08,ESE,113,1.3,1.3,1,0.00,,,0.00,WUHU216HW,2013-08-19 09:46:00,
2013-08-19 04:51:00,59.8,3.1,30.08,ESE,113,0.9,1.3,1,0.00,,,0.00,WUHU216HW,2013-08-19 09:51:00,
2013-08-19 04:56:00,59.8,3.1,30.08,ESE,113,1.1,1.3,1,0.00,,,0.00,WUHU216HW,2013-08-19 09:56:00,
2013-08-19 05:01:00,59.8,3.1,30.08,ESE,113,0.7,1.1,1,0.00,,,0.00,WUHU216HW,2013-08-19 10:01:00,
2013-08-19 05:06:00,59.8,3.1,30.08,ESE,113,0.7,1.1,1,0.00,,,0.00,WUHU216HW,2013-08-19 10:06:00,
2013-08-19 05:11:00,59.6,3.0,30.08,ESE,113,0.9,0.9,1,0.00,,,0.00,WUHU216HW,2013-08-19 10:11:00,
2013-08-19 05:16:00,59.4,2.8,30.08,ESE,113,0.4,0.9,1,0.00,,,0.00,WUHU216HW,2013-08-19 10:16:00,
2013-08-19 05:21:00,59.4,2.8,30.09,ESE,113,0.0,0.9,1,0.00,,,0.00,WUHU216HW,2013-08-19 10:21:00,
2013-08-19 05:26:00,59.0,2.5,30.09,ESE,113,0.0,0.4,1,0.00,,,0.00,WUHU216HW,2013-08-19 10:26:00,
2013-08-19 05:31:00,59.2,2.7,30.09,ESE,113,0.4,0.4,1,0.00,,,0.00,WUHU216HW,2013-08-19 10:31:00,
2013-08-19 05:36:00,59.2,2.7,30.09,ESE,113,0.0,0.4,1,0.00,,,0.00,WUHU216HW,2013-08-19 10:36:00,
2013-08-19 05:41:00,59.2,2.7,30.09,ESE,113,0.0,0.4,1,0.00,,,0.00,WUHU216HW,2013-08-19 10:41:00,
2013-08-19 05:46:00,59.0,2.5,30.09,ESE,113,1.1,1.1,1,0.00,,,0.00,WUHU216HW,2013-08-19 10:46:00,
2013-08-19 05:51:00,59.0,2.5,30.09,ESE,113,1.1,1.1,1,0.00,,,0.00,WUHU216HW,2013-08-19 10:51:00,
2013-08-19 05:56:00,59.0,2.5,30.09,ESE,113,0.4,1.1,1,0.00,,,0.00,WUHU216HW,2013-08-19 10:56:00,
2013-08-19 06:01:00,59.0,2.5,30.09,ESE,113,1.8,1.8,1,0.00,,,0.00,WUHU216HW,2013-08-19 11:01:00,
2013-08-19 06:06:00,59.4,2.8,30.09,ESE,113,1.1,1.8,1,0.00,,,0.00,WUHU216HW,2013-08-19 11:06:00,
2013-08-19 06:11:00,59.4,2.8,30.09,ESE,113,1.1,1.8,1,0.00,,,0.00,WUHU216HW,2013-08-19 11:11:00,
2013-08-19 06:16:00,59.4,2.8,30.09,ESE,113,1.6,1.6,1,0.00,,,0.00,WUHU216HW,2013-08-19 11:16:00,
2013-08-19 06:21:00,59.4,2.8,30.09,ESE,113,1.3,1.6,1,0.00,,,0.00,WUHU216HW,2013-08-19 11:21:00,
2013-08-19 06:26:00,59.4,2.8,30.10,ESE,113,0.7,1.6,1,0.00,,,0.00,WUHU216HW,2013-08-19 11:26:00,
2013-08-19 06:31:00,59.4,2.8,30.10,ESE,113,0.9,1.3,1,0.00,,,0.00,WUHU216HW,2013-08-19 11:31:00,
2013-08-19 06:36:00,59.4,2.8,30.10,ESE,113,0.7,0.9,1,0.00,,,0.00,WUHU216HW,2013-08-19 11:36:00,
2013-08-19 06:41:00,59.2,2.7,30.10,ESE,113,0.2,0.9,1,0.00,,,0.00,WUHU216HW,2013-08-19 11:41:00,
2013-08-19 06:46:00,59.2,2.7,30.11,ESE,113,0.4,0.7,1,0.00,,,0.00,WUHU216HW,2013-08-19 11:46:00,
2013-08-19 06:51:00,59.2,2.7,30.10,ESE,113,0.4,0.7,1,0.00,,,0.00,WUHU216HW,2013-08-19 11:51:00,
2013-08-19 06:56:00,59.2,2.7,30.10,ESE,113,0.7,0.7,1,0.00,,,0.00,WUHU216HW,2013-08-19 11:56:00,
2013-08-19 07:01:00,59.4,2.8,30.11,ESE,113,0.4,0.7,1,0.00,,,0.00,WUHU216HW,2013-08-19 12:01:00,
2013-08-19 07:06:00,59.4,2.8,30.11,ESE,113,1.1,1.1,1,0.00,,,0.00,WUHU216HW,2013-08-19 12:06:00,
2013-08-19 07:11:00,59.4,2.8,30.10,ESE,113,1.1,1.1,1,0.00,,,0.00,WUHU216HW,2013-08-19 12:11:00,
2013-08-19 07:16:00,59.6,3.0,30.10,ESE,113,1.8,1.8,1,0.00,,,0.00,WUHU216HW,2013-08-19 12:16:00,
2013-08-19 07:21:00,59.8,3.1,30.10,ESE,113,1.1,1.8,1,0.00,,,0.00,WUHU216HW,2013-08-19 12:21:00,
2013-08-19 07:26:00,60.3,3.5,30.10,ESE,113,0.7,1.8,1,0.00,,,0.00,WUHU216HW,2013-08-19 12:26:00,
2013-08-19 07:31:00,60.5,3.7,30.11,ESE,113,0.9,1.1,1,0.00,,,0.00,WUHU216HW,2013-08-19 12:31:00,
2013-08-19 07:36:00,60.8,4.0,30.11,ESE,113,1.1,1.1,1,0.00,,,0.00,WUHU216HW,2013-08-19 12:36:00,
2013-08-19 07:41:00,61.6,4.5,30.11,ESE,113,0.7,1.1,1,0.00,,,0.00,WUHU216HW,2013-08-19 12:41:00,
2013-08-19 07:46:00,61.6,4.5,30.11,ESE,113,0.0,1.1,1,0.00,,,0.00,WUHU216HW,2013-08-19 12:46:00,
2013-08-19 07:51:00,62.3,5.1,30.11,ESE,113,0.0,0.7,1,0.00,,,0.00,WUHU216HW,2013-08-19 12:51:00,
2013-08-19 07:56:00,63.5,6.0,30.11,SE,135,1.8,1.8,1,0.00,,,0.00,WUHU216HW,2013-08-19 12:56:00,
2013-08-19 08:01:00,66.6,8.4,30.11,SSE,158,0.7,1.8,1,0.00,,,0.00,WUHU216HW,2013-08-19 13:01:00,
2013-08-19 08:06:00,67.7,9.3,30.12,SSE,158,1.6,1.8,1,0.00,,,0.00,WUHU216HW,2013-08-19 13:06:00,
2013-08-19 08:11:00,68.8,10.1,30.11,SE,135,1.8,1.8,1,0.00,,,0.00,WUHU216HW,2013-08-19 13:11:00,
2013-08-19 08:16:00,70.2,11.1,30.12,SE,135,0.0,2.2,1,0.00,,,0.00,WUHU216HW,2013-08-19 13:16:00,
2013-08-19 08:21:00,70.9,11.7,30.12,SSE,158,0.7,2.2,1,0.00,,,0.00,WUHU216HW,2013-08-19 13:21:00,
2013-08-19 08:26:00,72.5,13.0,30.12,SSW,203,1.1,1.1,1,0.00,,,0.00,WUHU216HW,2013-08-19 13:26:00,
2013-08-19 08:31:00,72.9,13.2,30.12,SSE,158,1.1,1.1,1,0.00,,,0.00,WUHU216HW,2013-08-19 13:31:00,
2013-08-19 08:36:00,73.1,13.4,30.12,SSE,158,0.0,1.1,1,0.00,,,0.00,WUHU216HW,2013-08-19 13:36:00,
2013-08-19 08:41:00,73.3,13.5,30.12,SSE,158,0.4,4.0,1,0.00,,,0.00,WUHU216HW,2013-08-19 13:41:00,
2013-08-19 08:46:00,73.1,13.4,30.12,SW,225,0.0,4.0,1,0.00,,,0.00,WUHU216HW,2013-08-19 13:46:00,
2013-08-19 08:51:00,74.0,14.0,30.12,SSE,158,1.1,1.1,1,0.00,,,0.00,WUHU216HW,2013-08-19 13:51:00,
2013-08-19 08:56:00,75.6,15.2,30.12,SSE,158,1.3,1.3,1,0.00,,,0.00,WUHU216HW,2013-08-19 13:56:00,
2013-08-19 09:01:00,75.6,15.2,30.13,West,270,1.1,1.3,1,0.00,,,0.00,WUHU216HW,2013-08-19 14:01:00,
2013-08-19 09:06:00,76.3,15.9,30.13,SW,225,0.0,1.3,1,0.00,,,0.00,WUHU216HW,2013-08-19 14:06:00,
2013-08-19 09:11:00,77.0,16.4,30.12,SW,225,0.0,1.1,1,0.00,,,0.00,WUHU216HW,2013-08-19 14:11:00,
2013-08-19 09:16:00,78.3,17.3,30.13,SSE,158,0.7,0.7,1,0.00,,,0.00,WUHU216HW,2013-08-19 14:16:00,
2013-08-19 09:21:00,78.7,17.6,30.13,WSW,248,0.4,0.7,1,0.00,,,0.00,WUHU216HW,2013-08-19 14:21:00,
2013-08-19 09:26:00,78.3,17.3,30.13,SSW,203,1.6,1.6,1,0.00,,,0.00,WUHU216HW,2013-08-19 14:26:00,
2013-08-19 09:31:00,78.3,17.3,30.13,SW,225,0.2,1.6,1,0.00,,,0.00,WUHU216HW,2013-08-19 14:31:00,
2013-08-19 09:36:00,78.5,17.4,30.13,SE,135,1.1,1.6,1,0.00,,,0.00,WUHU216HW,2013-08-19 14:36:00,
2013-08-19 09:41:00,78.7,17.6,30.13,South,180,0.7,1.1,1,0.00,,,0.00,WUHU216HW,2013-08-19 14:41:00,
2013-08-19 09:46:00,79.7,18.4,30.13,SSE,158,0.7,1.6,1,0.00,,,0.00,WUHU216HW,2013-08-19 14:46:00,
2013-08-19 09:51:00,79.9,18.6,30.13,SE,135,1.1,1.6,1,0.00,,,0.00,WUHU216HW,2013-08-19 14:51:00,
2013-08-19 09:56:00,79.7,18.4,30.13,SW,225,0.4,1.1,1,0.00,,,0.00,WUHU216HW,2013-08-19 14:56:00,
2013-08-19 10:01:00,80.1,18.6,30.13,SSW,203,0.0,1.1,1,0.00,,,0.00,WUHU216HW,2013-08-19 15:01:00,
2013-08-19 10:06:00,80.6,24.1,30.13,South,180,0.7,0.9,13,0.00,,,0.00,WUHU216HW,2013-08-19 15:06:00,
2013-08-19 10:11:00,80.8,19.3,30.13,SE,135,1.8,1.8,3,0.00,,,0.00,WUHU216HW,2013-08-19 15:11:00,
2013-08-19 10:16:00,80.6,19.1,30.13,South,180,1.1,1.8,1,0.00,,,0.00,WUHU216HW,2013-08-19 15:16:00,
2013-08-19 10:21:00,80.6,19.1,30.13,SSE,158,1.8,1.8,8,0.00,,,0.00,WUHU216HW,2013-08-19 15:21:00,
2013-08-19 10:26:00,81.0,29.5,30.13,SSW,203,2.0,2.0,16,0.00,,,0.00,WUHU216HW,2013-08-19 15:26:00,
2013-08-19 10:31:00,81.0,24.5,30.13,South,180,0.4,2.0,13,0.00,,,0.00,WUHU216HW,2013-08-19 15:31:00,
2013-08-19 10:36:00,81.7,25.0,30.13,SE,135,1.6,2.0,13,0.00,,,0.00,WUHU216HW,2013-08-19 15:36:00,
2013-08-19 10:41:00,82.4,24.0,30.13,SSW,203,1.1,1.6,12,0.00,,,0.00,WUHU216HW,2013-08-19 15:41:00,
2013-08-19 10:46:00,81.9,39.1,30.13,SE,135,1.3,1.6,22,0.00,,,0.00,WUHU216HW,2013-08-19 15:46:00,
2013-08-19 10:51:00,81.9,49.1,30.13,SE,135,3.1,3.1,32,0.00,,,0.00,WUHU216HW,2013-08-19 15:51:00,
2013-08-19 10:56:00,82.4,43.8,30.13,SSE,158,3.8,3.8,26,0.00,,,0.00,WUHU216HW,2013-08-19 15:56:00,
2013-08-19 11:01:00,81.9,43.3,30.13,SSW,203,0.7,3.8,26,0.00,,,0.00,WUHU216HW,2013-08-19 16:01:00,
2013-08-19 11:06:00,82.4,43.8,30.13,WSW,248,1.8,3.8,26,0.00,,,0.00,WUHU216HW,2013-08-19 16:06:00,
2013-08-19 11:11:00,82.6,30.8,30.13,WSW,248,2.7,3.4,16,0.00,,,0.00,WUHU216HW,2013-08-19 16:11:00,
2013-08-19 11:16:00,82.4,50.2,30.13,SE,135,2.7,2.7,33,0.00,,,0.00,WUHU216HW,2013-08-19 16:16:00,
2013-08-19 11:21:00,82.4,20.5,30.13,SE,135,1.3,2.7,10,0.00,,,0.00,WUHU216HW,2013-08-19 16:21:00,
2013-08-19 11:26:00,82.4,51.8,30.13,SE,135,3.6,3.6,35,0.00,,,0.00,WUHU216HW,2013-08-19 16:26:00,
2013-08-19 11:31:00,82.6,48.9,30.13,SE,135,2.0,3.6,31,0.00,,,0.00,WUHU216HW,2013-08-19 16:31:00,
2013-08-19 11:36:00,82.8,44.0,30.13,SSW,203,1.1,3.6,26,0.00,,,0.00,WUHU216HW,2013-08-19 16:36:00,
2013-08-19 11:41:00,82.8,39.8,30.13,WSW,248,3.4,3.4,22,0.00,,,0.00,WUHU216HW,2013-08-19 16:41:00,
2013-08-19 11:46:00,81.7,41.0,30.13,WSW,248,4.0,4.0,24,0.00,,,0.00,WUHU216HW,2013-08-19 16:46:00,
2013-08-19 11:51:00,81.9,20.1,30.13,WSW,248,2.2,4.0,5,0.00,,,0.00,WUHU216HW,2013-08-19 16:51:00,
2013-08-19 11:56:00,82.1,33.8,30.13,WSW,248,1.8,4.0,18,0.00,,,0.00,WUHU216HW,2013-08-19 16:56:00,
2013-08-19 12:01:00,82.8,25.8,30.13,West,270,3.8,3.8,13,0.00,,,0.00,WUHU216HW,2013-08-19 17:01:00,
2013-08-19 12:06:00,83.0,45.2,30.12,South,180,0.4,3.8,27,0.00,,,0.00,WUHU216HW,2013-08-19 17:06:00,
2013-08-19 12:11:00,83.0,50.8,30.12,WSW,248,1.3,3.8,33,0.00,,,0.00,WUHU216HW,2013-08-19 17:11:00,
2013-08-19 12:16:00,83.2,51.7,30.12,West,270,1.3,1.3,34,0.00,,,0.00,WUHU216HW,2013-08-19 17:16:00,
2013-08-19 12:21:00,83.2,55.6,30.12,SSW,203,1.1,4.7,39,0.00,,,0.00,WUHU216HW,2013-08-19 17:21:00,
2013-08-19 12:26:00,83.9,52.4,30.12,ESE,113,0.4,4.7,34,0.00,,,0.00,WUHU216HW,2013-08-19 17:26:00,
2013-08-19 12:31:00,83.7,58.8,30.12,SSE,158,1.1,1.6,43,0.00,,,0.00,WUHU216HW,2013-08-19 17:31:00,
2013-08-19 12:36:00,83.7,57.6,30.11,WSW,248,1.1,1.1,41,0.00,,,0.00,WUHU216HW,2013-08-19 17:36:00,
2013-08-19 12:41:00,83.9,59.0,30.11,WSW,248,2.5,2.5,43,0.00,,,0.00,WUHU216HW,2013-08-19 17:41:00,
2013-08-19 12:46:00,83.9,61.5,30.11,SE,135,1.1,2.5,47,0.00,,,0.00,WUHU216HW,2013-08-19 17:46:00,
2013-08-19 12:51:00,84.1,61.0,30.11,SSW,203,1.1,5.4,46,0.00,,,0.00,WUHU216HW,2013-08-19 17:51:00,
2013-08-19 12:56:00,84.2,61.8,30.11,WSW,248,3.4,5.4,47,0.00,,,0.00,WUHU216HW,2013-08-19 17:56:00,
2013-08-19 13:01:00,83.3,60.9,30.11,SSE,158,0.9,4.3,47,0.00,,,0.00,WUHU216HW,2013-08-19 18:01:00,
2013-08-19 13:06:00,82.6,57.8,30.11,SW,225,0.0,4.3,43,0.00,,,0.00,WUHU216HW,2013-08-19 18:06:00,
2013-08-19 13:11:00,83.9,60.8,30.11,WSW,248,4.9,4.9,46,0.00,,,0.00,WUHU216HW,2013-08-19 18:11:00,
2013-08-19 13:16:00,84.1,61.7,30.10,WSW,248,4.3,4.9,47,0.00,,,0.00,WUHU216HW,2013-08-19 18:16:00,
2013-08-19 13:21:00,84.4,62.0,30.10,WSW,248,1.1,4.3,47,0.00,,,0.00,WUHU216HW,2013-08-19 18:21:00,
2013-08-19 13:26:00,83.7,61.9,30.10,WSW,248,0.2,4.3,48,0.00,,,0.00,WUHU216HW,2013-08-19 18:26:00,
2013-08-19 13:31:00,83.2,60.8,30.10,West,270,0.4,1.1,47,0.00,,,0.00,WUHU216HW,2013-08-19 18:31:00,
2013-08-19 13:36:00,82.8,60.4,30.10,ESE,113,1.8,3.1,47,0.00,,,0.00,WUHU216HW,2013-08-19 18:36:00,
2013-08-19 13:41:00,83.0,60.6,30.10,SE,135,0.7,3.1,47,0.00,,,0.00,WUHU216HW,2013-08-19 18:41:00,
2013-08-19 13:46:00,82.8,60.4,30.10,SE,135,1.6,1.8,47,0.00,,,0.00,WUHU216HW,2013-08-19 18:46:00,
2013-08-19 13:51:00,83.2,61.4,30.10,SW,225,1.1,1.6,48,0.00,,,0.00,WUHU216HW,2013-08-19 18:51:00,
2013-08-19 13:56:00,84.1,62.3,30.10,SE,135,3.4,3.4,48,0.00,,,0.00,WUHU216HW,2013-08-19 18:56:00,
2013-08-19 14:01:00,85.0,61.2,30.09,SE,135,1.1,3.4,45,0.00,,,0.00,WUHU216HW,2013-08-19 19:01:00,
2013-08-19 14:06:00,86.0,63.5,30.09,South,180,1.6,3.4,47,0.00,,,0.00,WUHU216HW,2013-08-19 19:06:00,
2013-08-19 14:11:00,85.3,62.2,30.09,WSW,248,1.8,1.8,46,0.00,,,0.00,WUHU216HW,2013-08-19 19:11:00,
2013-08-19 14:16:00,85.5,63.6,30.09,NW,315,1.6,1.8,48,0.00,,,0.00,WUHU216HW,2013-08-19 19:16:00,
2013-08-19 14:21:00,86.0,64.1,30.09,NNW,338,1.1,1.8,48,0.00,,,0.00,WUHU216HW,2013-08-19 19:21:00,
2013-08-19 14:26:00,86.8,61.6,30.09,SSW,203,1.1,1.8,43,0.00,,,0.00,WUHU216HW,2013-08-19 19:26:00,
2013-08-19 14:31:00,85.7,62.5,30.09,West,270,2.9,2.9,46,0.00,,,0.00,WUHU216HW,2013-08-19 19:31:00,
2013-08-19 14:36:00,85.3,60.9,30.09,SSE,158,0.7,2.9,44,0.00,,,0.00,WUHU216HW,2013-08-19 19:36:00,
2013-08-19 14:41:00,85.9,62.0,30.09,SE,135,4.0,4.0,45,0.00,,,0.00,WUHU216HW,2013-08-19 19:41:00,
2013-08-19 14:46:00,86.0,63.5,30.09,SSW,203,1.1,4.0,47,0.00,,,0.00,WUHU216HW,2013-08-19 19:46:00,
2013-08-19 14:51:00,87.3,65.3,30.08,SW,225,1.1,4.0,48,0.00,,,0.00,WUHU216HW,2013-08-19 19:51:00,
2013-08-19 14:56:00,87.5,64.7,30.08,West,270,4.0,4.0,47,0.00,,,0.00,WUHU216HW,2013-08-19 19:56:00,
2013-08-19 15:01:00,86.8,64.1,30.08,SW,225,0.7,4.0,47,0.00,,,0.00,WUHU216HW,2013-08-19 20:01:00,
2013-08-19 15:06:00,86.6,64.5,30.08,WSW,248,0.0,4.0,48,0.00,,,0.00,WUHU216HW,2013-08-19 20:06:00,
2013-08-19 15:11:00,87.1,65.1,30.08,WSW,248,0.0,0.7,48,0.00,,,0.00,WUHU216HW,2013-08-19 20:11:00,
2013-08-19 15:16:00,87.3,65.3,30.08,West,270,0.4,1.8,48,0.00,,,0.00,WUHU216HW,2013-08-19 20:16:00,
2013-08-19 15:21:00,87.3,64.0,30.07,WSW,248,0.0,1.8,46,0.00,,,0.00,WUHU216HW,2013-08-19 20:21:00,
2013-08-19 15:26:00,88.9,66.0,30.07,WSW,248,1.6,1.6,47,0.00,,,0.00,WUHU216HW,2013-08-19 20:26:00,
2013-08-19 15:31:00,88.9,66.0,30.07,WSW,248,0.4,1.6,47,0.00,,,0.00,WUHU216HW,2013-08-19 20:31:00,
2013-08-19 15:36:00,89.3,63.1,30.07,SE,135,1.3,1.6,42,0.00,,,0.00,WUHU216HW,2013-08-19 20:36:00,
2013-08-19 15:41:00,90.9,67.2,30.07,West,270,0.0,1.3,46,0.00,,,0.00,WUHU216HW,2013-08-19 20:41:00,
2013-08-19 15:46:00,90.5,64.9,30.07,SW,225,1.1,1.3,43,0.00,,,0.00,WUHU216HW,2013-08-19 20:46:00,
2013-08-19 15:51:00,90.4,64.7,30.06,SW,225,2.9,2.9,43,0.00,,,0.00,WUHU216HW,2013-08-19 20:51:00,
2013-08-19 15:56:00,88.2,64.1,30.06,SSE,158,0.7,2.9,45,0.00,,,0.00,WUHU216HW,2013-08-19 20:56:00,
2013-08-19 16:01:00,87.1,64.5,30.06,SE,135,0.7,2.9,47,0.00,,,0.00,WUHU216HW,2013-08-19 21:01:00,
2013-08-19 16:06:00,86.0,64.1,30.06,SSW,203,0.4,0.7,48,0.00,,,0.00,WUHU216HW,2013-08-19 21:06:00,
2013-08-19 16:11:00,85.7,63.7,30.06,WSW,248,1.3,1.8,48,0.00,,,0.00,WUHU216HW,2013-08-19 21:11:00,
2013-08-19 16:16:00,87.5,64.7,30.06,WSW,248,4.7,4.7,47,0.00,,,0.00,WUHU216HW,2013-08-19 21:16:00,
2013-08-19 16:21:00,87.5,63.5,30.06,WSW,248,2.2,4.7,45,0.00,,,0.00,WUHU216HW,2013-08-19 21:21:00,
2013-08-19 16:26:00,86.9,64.9,30.06,WNW,293,1.1,4.7,48,0.00,,,0.00,WUHU216HW,2013-08-19 21:26:00,
2013-08-19 16:31:00,88.6,65.7,30.06,West,270,1.8,2.2,47,0.00,,,0.00,WUHU216HW,2013-08-19 21:31:00,
2013-08-19 16:36:00,89.3,63.7,30.06,South,180,1.8,1.8,43,0.00,,,0.00,WUHU216HW,2013-08-19 21:36:00,
2013-08-19 16:41:00,89.1,65.5,30.06,WSW,248,1.6,1.8,46,0.00,,,0.00,WUHU216HW,2013-08-19 21:41:00,
2013-08-19 16:46:00,89.1,64.9,30.06,SE,135,2.5,2.5,45,0.00,,,0.00,WUHU216HW,2013-08-19 21:46:00,
2013-08-19 16:51:00,89.5,65.2,30.06,WSW,248,0.7,2.5,45,0.00,,,0.00,WUHU216HW,2013-08-19 21:51:00,
2013-08-19 16:56:00,92.2,65.0,30.05,West,270,4.5,4.5,41,0.00,,,0.00,WUHU216HW,2013-08-19 21:56:00,
2013-08-19 17:01:00,91.3,65.5,30.05,West,270,0.0,4.5,43,0.00,,,0.00,WUHU216HW,2013-08-19 22:01:00,
2013-08-19 17:06:00,91.4,64.4,30.05,WSW,248,3.4,4.5,41,0.00,,,0.00,WUHU216HW,2013-08-19 22:06:00,
2013-08-19 17:11:00,89.5,63.3,30.05,WSW,248,0.9,3.4,42,0.00,,,0.00,WUHU216HW,2013-08-19 22:11:00,
2013-08-19 17:16:00,91.3,64.9,30.05,WSW,248,0.0,3.4,42,0.00,,,0.00,WUHU216HW,2013-08-19 22:16:00,
2013-08-19 17:21:00,91.4,62.1,30.05,SW,225,0.4,1.3,38,0.00,,,0.00,WUHU216HW,2013-08-19 22:21:00,
2013-08-19 17:26:00,90.5,62.9,30.04,SSW,203,0.4,1.3,40,0.00,,,0.00,WUHU216HW,2013-08-19 22:26:00,
2013-08-19 17:31:00,90.0,63.7,30.04,SW,225,0.2,0.4,42,0.00,,,0.00,WUHU216HW,2013-08-19 22:31:00,
2013-08-19 17:36:00,89.6,63.4,30.04,WSW,248,0.4,0.4,42,0.00,,,0.00,WUHU216HW,2013-08-19 22:36:00,
2013-08-19 17:41:00,89.8,62.9,30.04,WSW,248,0.7,0.7,41,0.00,,,0.00,WUHU216HW,2013-08-19 22:41:00,
2013-08-19 17:46:00,89.8,64.2,30.04,WSW,248,0.9,0.9,43,0.00,,,0.00,WUHU216HW,2013-08-19 22:46:00,
2013-08-19 17:51:00,89.5,65.2,30.04,SW,225,0.4,1.1,45,0.00,,,0.00,WUHU216HW,2013-08-19 22:51:00,
2013-08-19 17:56:00,88.7,64.6,30.04,SE,135,0.0,1.1,45,0.00,,,0.00,WUHU216HW,2013-08-19 22:56:00,
2013-08-19 18:01:00,87.8,63.8,30.04,SSE,158,0.9,0.9,45,0.00,,,0.00,WUHU216HW,2013-08-19 23:01:00,
2013-08-19 18:06:00,88.0,65.3,30.04,WSW,248,0.7,1.1,47,0.00,,,0.00,WUHU216HW,2013-08-19 23:06:00,
2013-08-19 18:11:00,87.3,64.0,30.04,SSE,158,1.8,1.8,46,0.00,,,0.00,WUHU216HW,2013-08-19 23:11:00,
2013-08-19 18:16:00,85.0,63.7,30.04,SSE,158,0.2,1.8,49,0.00,,,0.00,WUHU216HW,2013-08-19 23:16:00,
2013-08-19 18:21:00,84.2,63.1,30.04,SSE,158,0.4,1.8,49,0.00,,,0.00,WUHU216HW,2013-08-19 23:21:00,
2013-08-19 18:26:00,83.9,62.7,30.03,SW,225,0.0,0.4,49,0.00,,,0.00,WUHU216HW,2013-08-19 23:26:00,
2013-08-19 18:31:00,84.8,63.5,30.03,SW,225,0.2,0.4,49,0.00,,,0.00,WUHU216HW,2013-08-19 23:31:00,
2013-08-19 18:36:00,84.8,64.2,30.03,SW,225,1.1,1.1,50,0.00,,,0.00,WUHU216HW,2013-08-19 23:36:00,
2013-08-19 18:41:00,84.1,62.3,30.03,SW,225,1.3,1.3,48,0.00,,,0.00,WUHU216HW,2013-08-19 23:41:00,
2013-08-19 18:46:00,83.3,61.6,30.03,WSW,248,0.0,1.3,48,0.00,,,0.00,WUHU216HW,2013-08-19 23:46:00,
2013-08-19 18:51:00,82.6,60.8,30.03,WSW,248,0.0,1.3,48,0.00,,,0.00,WUHU216HW,2013-08-19 23:51:00,
2013-08-19 18:56:00,82.3,60.6,30.03,WSW,248,0.0,0.4,48,0.00,,,0.00,WUHU216HW,2013-08-19 23:56:00,
2013-08-19 19:01:00,81.9,60.2,30.03,WSW,248,0.2,0.2,48,0.00,,,0.00,WUHU216HW,2013-08-20 00:01:00,
2013-08-19 19:06:00,81.4,59.1,30.03,WSW,248,0.0,0.2,47,0.00,,,0.00,WUHU216HW,2013-08-20 00:06:00,
2013-08-19 19:11:00,80.8,58.6,30.03,WSW,248,0.0,0.2,47,0.00,,,0.00,WUHU216HW,2013-08-20 00:11:00,
2013-08-19 19:16:00,80.6,57.2,30.03,WSW,248,0.4,0.4,45,0.00,,,0.00,WUHU216HW,2013-08-20 00:16:00,
2013-08-19 19:21:00,79.9,56.0,30.03,WSW,248,0.0,0.4,44,0.00,,,0.00,WUHU216HW,2013-08-20 00:21:00,
2013-08-19 19:26:00,79.4,55.5,30.03,WSW,248,0.0,0.4,44,0.00,,,0.00,WUHU216HW,2013-08-20 00:26:00,
2013-08-19 19:31:00,79.2,55.4,30.03,WSW,248,0.0,0.0,44,0.00,,,0.00,WUHU216HW,2013-08-20 00:31:00,
2013-08-19 19:36:00,78.8,53.8,30.03,West,270,0.0,0.0,42,0.00,,,0.00,WUHU216HW,2013-08-20 00:36:00,
2013-08-19 19:41:00,78.1,48.1,30.03,West,270,0.0,0.0,35,0.00,,,0.00,WUHU216HW,2013-08-20 00:41:00,
2013-08-19 19:46:00,77.8,44.7,30.03,West,270,0.0,0.0,31,0.00,,,0.00,WUHU216HW,2013-08-20 00:46:00,
2013-08-19 19:51:00,77.2,39.3,30.03,West,270,0.0,0.0,26,0.00,,,0.00,WUHU216HW,2013-08-20 00:51:00,
2013-08-19 19:56:00,76.1,39.5,30.03,West,270,0.0,0.0,27,0.00,,,0.00,WUHU216HW,2013-08-20 00:56:00,
2013-08-19 20:01:00,75.4,35.7,30.03,West,270,0.0,0.0,24,0.00,,,0.00,WUHU216HW,2013-08-20 01:01:00,
2013-08-19 20:06:00,74.9,33.3,30.03,West,270,0.0,0.0,22,0.00,,,0.00,WUHU216HW,2013-08-20 01:06:00,
2013-08-19 20:11:00,74.3,25.8,30.03,West,270,0.0,0.0,17,0.00,,,0.00,WUHU216HW,2013-08-20 01:11:00,
2013-08-19 20:16:00,74.0,14.0,30.03,West,270,0.0,0.0,1,0.00,,,0.00,WUHU216HW,2013-08-20 01:16:00,
2013-08-19 20:21:00,73.8,14.0,30.03,West,270,0.0,0.0,1,0.00,,,0.00,WUHU216HW,2013-08-20 01:21:00,
2013-08-19 20:26:00,73.4,13.7,30.03,West,270,0.0,0.0,1,0.00,,,0.00,WUHU216HW,2013-08-20 01:26:00,
2013-08-19 20:31:00,73.1,13.4,30.03,West,270,0.0,0.0,1,0.00,,,0.00,WUHU216HW,2013-08-20 01:31:00,
2013-08-19 20:36:00,72.7,13.2,30.03,West,270,0.0,0.0,1,0.00,,,0.00,WUHU216HW,2013-08-20 01:36:00,
2013-08-19 20:41:00,72.2,12.7,30.03,West,270,0.0,0.0,1,0.00,,,0.00,WUHU216HW,2013-08-20 01:41:00,
2013-08-19 20:46:00,72.0,12.5,30.03,West,270,0.0,0.0,1,0.00,,,0.00,WUHU216HW,2013-08-20 01:46:00,
2013-08-19 20:51:00,71.6,12.2,30.03,West,270,0.0,0.0,1,0.00,,,0.00,WUHU216HW,2013-08-20 01:51:00,
2013-08-19 20:56:00,71.3,12.0,30.03,West,270,0.0,0.0,1,0.00,,,0.00,WUHU216HW,2013-08-20 01:56:00,
2013-08-19 21:01:00,71.1,11.8,30.04,West,270,0.0,0.0,1,0.00,,,0.00,WUHU216HW,2013-08-20 02:01:00,
2013-08-19 21:06:00,70.9,11.7,30.03,West,270,0.0,0.0,1,0.00,,,0.00,WUHU216HW,2013-08-20 02:06:00,
2013-08-19 21:11:00,71.1,11.8,30.03,West,270,1.1,1.1,1,0.00,,,0.00,WUHU216HW,2013-08-20 02:11:00,
2013-08-19 21:16:00,70.7,11.5,30.04,West,270,1.1,1.1,1,0.00,,,0.00,WUHU216HW,2013-08-20 02:16:00,
2013-08-19 21:21:00,70.6,11.3,30.04,West,270,0.7,1.1,1,0.00,,,0.00,WUHU216HW,2013-08-20 02:21:00,
2013-08-19 21:26:00,70.2,11.1,30.04,West,270,0.9,1.1,1,0.00,,,0.00,WUHU216HW,2013-08-20 02:26:00,
2013-08-19 21:31:00,69.8,10.8,30.04,West,270,0.4,0.9,1,0.00,,,0.00,WUHU216HW,2013-08-20 02:31:00,
2013-08-19 21:36:00,69.7,10.7,30.05,West,270,0.0,0.9,1,0.00,,,0.00,WUHU216HW,2013-08-20 02:36:00,
2013-08-19 21:41:00,69.5,10.5,30.05,West,270,0.2,0.4,1,0.00,,,0.00,WUHU216HW,2013-08-20 02:41:00,
2013-08-19 21:46:00,68.2,9.6,30.05,West,270,0.7,0.9,1,0.00,,,0.00,WUHU216HW,2013-08-20 02:46:00,
2013-08-19 21:51:00,68.4,9.8,30.06,West,270,0.7,0.9,1,0.00,,,0.00,WUHU216HW,2013-08-20 02:51:00,
2013-08-19 21:56:00,68.8,10.1,30.06,West,270,0.7,0.7,1,0.00,,,0.00,WUHU216HW,2013-08-20 02:56:00,
2013-08-19 22:01:00,68.4,9.8,30.06,West,270,0.0,0.7,1,0.00,,,0.00,WUHU216HW,2013-08-20 03:01:00,
2013-08-19 22:06:00,68.4,9.8,30.06,West,270,0.0,0.7,1,0.00,,,0.00,WUHU216HW,2013-08-20 03:06:00,
2013-08-19 22:11:00,68.8,10.1,30.06,West,270,0.0,0.0,1,0.00,,,0.00,WUHU216HW,2013-08-20 03:11:00,
2013-08-19 22:16:00,68.0,9.5,30.06,West,270,0.0,0.0,1,0.00,,,0.00,WUHU216HW,2013-08-20 03:16:00,
2013-08-19 22:21:00,68.0,9.5,30.06,West,270,1.1,1.1,1,0.00,,,0.00,WUHU216HW,2013-08-20 03:21:00,
2013-08-19 22:26:00,67.7,9.3,30.06,West,270,1.8,1.8,1,0.00,,,0.00,WUHU216HW,2013-08-20 03:26:00,
2013-08-19 22:31:00,67.3,9.0,30.06,West,270,1.1,1.8,1,0.00,,,0.00,WUHU216HW,2013-08-20 03:31:00,
2013-08-19 22:36:00,66.6,8.4,30.06,West,270,0.4,1.8,1,0.00,,,0.00,WUHU216HW,2013-08-20 03:36:00,
2013-08-19 22:41:00,66.4,8.3,30.06,West,270,1.1,1.1,1,0.00,,,0.00,WUHU216HW,2013-08-20 03:41:00,
2013-08-19 22:46:00,65.9,7.8,30.06,West,270,2.0,2.0,1,0.00,,,0.00,WUHU216HW,2013-08-20 03:46:00,
2013-08-19 22:51:00,65.9,7.8,30.06,ESE,113,1.8,2.0,1,0.00,,,0.00,WUHU216HW,2013-08-20 03:51:00,
2013-08-19 22:56:00,65.9,7.8,30.06,ESE,113,0.9,2.0,1,0.00,,,0.00,WUHU216HW,2013-08-20 03:56:00,
2013-08-19 23:01:00,65.9,7.8,30.06,ESE,113,0.9,1.8,1,0.00,,,0.00,WUHU216HW,2013-08-20 04:01:00,
2013-08-19 23:06:00,66.1,7.9,30.07,ESE,113,0.4,0.9,1,0.00,,,0.00,WUHU216HW,2013-08-20 04:06:00,
2013-08-19 23:11:00,66.2,8.1,30.06,ESE,113,0.0,0.4,1,0.00,,,0.00,WUHU216HW,2013-08-20 04:11:00,
2013-08-19 23:16:00,66.6,8.4,30.07,SE,135,0.4,0.4,1,0.00,,,0.00,WUHU216HW,2013-08-20 04:16:00,
2013-08-19 23:21:00,67.7,9.3,30.07,ESE,113,1.8,1.8,1,0.00,,,0.00,WUHU216HW,2013-08-20 04:21:00,
2013-08-19 23:26:00,67.7,9.3,30.07,ESE,113,0.4,1.8,1,0.00,,,0.00,WUHU216HW,2013-08-20 04:26:00,
2013-08-19 23:31:00,67.7,9.3,30.07,ESE,113,0.4,1.8,1,0.00,,,0.00,WUHU216HW,2013-08-20 04:31:00,
2013-08-19 23:36:00,67.5,9.1,30.07,ESE,113,1.1,1.1,1,0.00,,,0.00,WUHU216HW,2013-08-20 04:36:00,
2013-08-19 23:41:00,67.7,9.3,30.07,ESE,113,1.6,1.6,1,0.00,,,0.00,WUHU216HW,2013-08-20 04:41:00,
2013-08-19 23:46:00,68.0,9.5,30.07,ESE,113,1.8,1.8,1,0.00,,,0.00,WUHU216HW,2013-08-20 04:46:00,
2013-08-19 23:51:00,68.4,9.8,30.07,SE,135,0.7,1.8,1,0.00,,,0.00,WUHU216HW,2013-08-20 04:51:00,
2013-08-19 23:56:00,68.4,9.8,30.07,SE,135,0.9,1.8,1,0.00,,,0.00,WUHU216HW,2013-08-20 04:56:00,